Time,TemperatureF,DewpointF,PressureIn,WindDirection,WindDirectionDegrees,WindSpeedMPH,WindSpeedGustMPH,Humidity,HourlyPrecipIn,Conditions,Clouds,dailyrainin,SoftwareType,DateUTC
2013-01-21 00:04:00,34.7,33.2,30.12,WNW,290,0.0,0.0,94,0.00,,SKC,0.00,VWS V13.00,2013-01-21 06:04:00,
2013-01-21 00:09:00,34.7,33.2,30.11,WNW,290,0.0,0.0,94,0.00,,SKC,0.00,VWS V13.00,2013-01-21 06:09:00,
2013-01-21 00:14:00,34.6,33.3,30.12,WNW,290,0.0,0.0,95,0.00,,SKC,0.00,VWS V13.00,2013-01-21 06:14:00,
2013-01-21 00:19:00,34.5,33.2,30.11,WNW,290,0.0,0.0,95,0.00,,SKC,0.00,VWS V13.00,2013-01-21 06:19:00,
2013-01-21 00:24:00,34.7,33.4,30.11,WNW,290,0.0,0.0,95,0.00,,SKC,0.00,VWS V13.00,2013-01-21 06:24:00,
2013-01-21 00:29:00,35.7,34.7,30.11,WNW,290,0.0,0.0,96,0.00,,SKC,0.00,VWS V13.00,2013-01-21 06:29:00,
2013-01-21 00:34:00,36.5,35.5,30.11,WNW,290,0.0,0.0,96,0.00,,SKC,0.00,VWS V13.00,2013-01-21 06:34:00,
2013-01-21 00:38:00,36.6,35.3,30.11,WNW,290,0.0,0.0,95,0.00,,SKC,0.00,VWS V13.00,2013-01-21 06:38:00,
2013-01-21 00:43:00,36.5,34.9,30.11,WNW,290,0.0,0.0,94,0.00,,SKC,0.00,VWS V13.00,2013-01-21 06:43:00,
2013-01-21 00:48:00,36.1,34.3,30.11,WNW,290,0.0,0.0,93,0.00,,SKC,0.00,VWS V13.00,2013-01-21 06:48:00,
2013-01-21 00:53:00,35.9,34.3,30.11,WNW,290,0.0,0.0,94,0.00,,SKC,0.00,VWS V13.00,2013-01-21 06:53:00,
2013-01-21 00:58:00,35.9,34.3,30.11,WNW,290,0.0,0.0,94,0.00,,SKC,0.00,VWS V13.00,2013-01-21 06:58:00,
2013-01-21 01:03:00,35.7,34.2,30.11,WNW,290,0.0,0.0,94,0.00,,SKC,0.00,VWS V13.00,2013-01-21 07:03:00,
2013-01-21 01:08:00,35.4,33.8,30.11,WNW,290,0.0,0.0,94,0.00,,SKC,0.00,VWS V13.00,2013-01-21 07:08:00,
2013-01-21 01:13:00,35.1,33.5,30.12,WNW,290,0.0,0.0,94,0.00,,SKC,0.00,VWS V13.00,2013-01-21 07:13:00,
2013-01-21 01:18:00,34.5,32.7,30.12,WNW,290,0.0,0.0,93,0.00,,SKC,0.00,VWS V13.00,2013-01-21 07:18:00,
2013-01-21 01:23:00,34.0,32.2,30.12,WNW,290,0.0,0.0,93,0.00,,SKC,0.00,VWS V13.00,2013-01-21 07:23:00,
2013-01-21 01:28:00,33.5,31.7,30.12,WNW,290,0.0,0.0,93,0.00,,SKC,0.00,VWS V13.00,2013-01-21 07:28:00,
2013-01-21 01:33:00,33.2,31.7,30.12,WNW,290,0.0,0.0,94,0.00,,SKC,0.00,VWS V13.00,2013-01-21 07:33:00,
2013-01-21 01:38:00,33.0,31.5,30.12,WNW,290,0.0,0.0,94,0.00,,SKC,0.00,VWS V13.00,2013-01-21 07:38:00,
2013-01-21 01:43:00,32.8,31.5,30.12,WNW,290,0.0,0.0,95,0.00,,SKC,0.00,VWS V13.00,2013-01-21 07:43:00,
2013-01-21 01:48:00,32.5,31.2,30.12,WNW,290,0.0,0.0,95,0.00,,SKC,0.00,VWS V13.00,2013-01-21 07:48:00,
2013-01-21 01:53:00,32.4,31.1,30.12,WNW,290,0.0,0.0,95,0.00,,SKC,0.00,VWS V13.00,2013-01-21 07:53:00,
2013-01-21 01:58:00,32.3,31.0,30.12,WNW,290,0.0,0.0,95,0.00,,SKC,0.00,VWS V13.00,2013-01-21 07:58:00,
2013-01-21 02:03:00,32.1,30.8,30.12,WNW,290,0.0,0.0,95,0.00,,SKC,0.00,VWS V13.00,2013-01-21 08:03:00,
2013-01-21 02:08:00,32.5,31.5,30.12,WNW,290,0.0,0.0,96,0.00,,SKC,0.00,VWS V13.00,2013-01-21 08:08:00,
2013-01-21 02:13:00,32.9,32.1,30.12,WNW,290,0.0,0.0,97,0.00,,SKC,0.00,VWS V13.00,2013-01-21 08:13:00,
2013-01-21 02:18:00,33.7,32.9,30.12,WNW,290,0.0,0.0,97,0.00,,SKC,0.00,VWS V13.00,2013-01-21 08:18:00,
2013-01-21 02:23:00,34.2,33.4,30.11,WNW,290,0.0,0.0,97,0.00,,SKC,0.00,VWS V13.00,2013-01-21 08:23:00,
2013-01-21 02:28:00,33.8,33.0,30.11,WNW,290,0.0,0.0,97,0.00,,SKC,0.00,VWS V13.00,2013-01-21 08:28:00,
2013-01-21 02:33:00,33.2,31.9,30.11,WNW,290,0.0,0.0,95,0.00,,SKC,0.00,VWS V13.00,2013-01-21 08:33:00,
2013-01-21 02:38:00,32.7,31.4,30.11,WNW,290,0.0,0.0,95,0.00,,SKC,0.00,VWS V13.00,2013-01-21 08:38:00,
2013-01-21 02:43:00,32.3,31.0,30.12,WNW,290,0.0,0.0,95,0.00,,SKC,0.00,VWS V13.00,2013-01-21 08:43:00,
2013-01-21 02:48:00,32.1,30.8,30.11,WNW,290,0.0,0.0,95,0.00,,SKC,0.00,VWS V13.00,2013-01-21 08:48:00,
2013-01-21 02:53:00,32.0,31.0,30.11,WNW,290,0.0,0.0,96,0.00,,SKC,0.00,VWS V13.00,2013-01-21 08:53:00,
2013-01-21 02:58:00,31.9,30.9,30.11,WNW,290,0.0,0.0,96,0.00,,SKC,0.00,VWS V13.00,2013-01-21 08:58:00,
2013-01-21 03:03:00,31.8,30.8,30.11,WNW,290,0.0,0.0,96,0.00,,SKC,0.00,VWS V13.00,2013-01-21 09:03:00,
2013-01-21 03:08:00,31.8,30.8,30.11,WNW,290,0.0,0.0,96,0.00,,SKC,0.00,VWS V13.00,2013-01-21 09:08:00,
2013-01-21 03:13:00,31.8,30.8,30.11,WNW,290,0.0,0.0,96,0.00,,SKC,0.00,VWS V13.00,2013-01-21 09:13:00,
2013-01-21 03:18:00,31.8,30.8,30.11,WNW,290,0.0,0.0,96,0.00,,SKC,0.00,VWS V13.00,2013-01-21 09:18:00,
2013-01-21 03:23:00,31.7,30.7,30.11,WNW,290,0.0,0.0,96,0.00,,SKC,0.00,VWS V13.00,2013-01-21 09:23:00,
2013-01-21 03:28:00,31.6,30.6,30.11,WNW,290,0.0,0.0,96,0.00,,SKC,0.00,VWS V13.00,2013-01-21 09:28:00,
2013-01-21 03:33:00,31.5,30.5,30.11,WNW,290,0.0,0.0,96,0.00,,SKC,0.00,VWS V13.00,2013-01-21 09:33:00,
2013-01-21 03:38:00,31.7,31.0,30.10,WNW,290,0.0,0.0,97,0.00,,SKC,0.00,VWS V13.00,2013-01-21 09:38:00,
2013-01-21 03:43:00,32.9,32.1,30.10,WNW,290,0.0,0.0,97,0.00,,SKC,0.00,VWS V13.00,2013-01-21 09:43:00,
2013-01-21 03:48:00,33.8,33.3,30.10,WNW,290,0.0,0.0,98,0.00,,SKC,0.00,VWS V13.00,2013-01-21 09:48:00,
2013-01-21 03:53:00,34.4,33.9,30.10,WNW,290,0.0,0.0,98,0.00,,SKC,0.00,VWS V13.00,2013-01-21 09:53:00,
2013-01-21 03:58:00,34.7,34.2,30.10,WNW,290,0.0,0.0,98,0.00,,SKC,0.00,VWS V13.00,2013-01-21 09:58:00,
2013-01-21 04:03:00,34.6,33.8,30.10,WNW,290,0.0,0.0,97,0.00,,SKC,0.00,VWS V13.00,2013-01-21 10:03:00,
2013-01-21 04:08:00,34.5,33.5,30.10,WNW,290,0.0,0.0,96,0.00,,SKC,0.00,VWS V13.00,2013-01-21 10:08:00,
2013-01-21 04:13:00,34.4,33.1,30.10,WNW,290,0.0,0.0,95,0.00,,SKC,0.00,VWS V13.00,2013-01-21 10:13:00,
2013-01-21 04:18:00,34.3,33.0,30.11,WNW,290,0.0,0.0,95,0.00,,SKC,0.00,VWS V13.00,2013-01-21 10:18:00,
2013-01-21 04:23:00,34.1,32.8,30.11,WNW,290,0.0,0.0,95,0.00,,SKC,0.00,VWS V13.00,2013-01-21 10:23:00,
2013-01-21 04:28:00,34.1,32.8,30.11,WNW,290,0.0,0.0,95,0.00,,SKC,0.00,VWS V13.00,2013-01-21 10:28:00,
2013-01-21 04:33:00,34.1,32.8,30.11,WNW,290,0.0,0.0,95,0.00,,SKC,0.00,VWS V13.00,2013-01-21 10:33:00,
2013-01-21 04:38:00,34.1,32.8,30.11,WNW,290,0.0,0.0,95,0.00,,SKC,0.00,VWS V13.00,2013-01-21 10:38:00,
2013-01-21 04:43:00,34.0,32.7,30.11,WNW,290,0.0,0.0,95,0.00,,SKC,0.00,VWS V13.00,2013-01-21 10:43:00,
2013-01-21 04:48:00,33.9,32.6,30.11,WNW,290,0.0,0.0,95,0.00,,SKC,0.00,VWS V13.00,2013-01-21 10:48:00,
2013-01-21 04:53:00,33.9,32.6,30.11,WNW,290,0.0,0.0,95,0.00,,SKC,0.00,VWS V13.00,2013-01-21 10:53:00,
2013-01-21 04:58:00,34.1,33.1,30.11,WNW,290,0.0,0.0,96,0.00,,SKC,0.00,VWS V13.00,2013-01-21 10:58:00,
2013-01-21 05:03:00,34.2,33.2,30.11,WNW,290,0.0,0.0,96,0.00,,SKC,0.00,VWS V13.00,2013-01-21 11:03:00,
2013-01-21 05:08:00,34.3,33.0,30.12,WNW,290,0.0,0.0,95,0.00,,SKC,0.00,VWS V13.00,2013-01-21 11:08:00,
2013-01-21 05:13:00,34.3,33.0,30.11,WNW,290,0.0,0.0,95,0.00,,SKC,0.00,VWS V13.00,2013-01-21 11:13:00,
2013-01-21 05:18:00,34.2,32.9,30.11,WNW,290,0.0,0.0,95,0.00,,SKC,0.00,VWS V13.00,2013-01-21 11:18:00,
2013-01-21 05:23:00,33.8,32.3,30.11,WNW,290,0.0,0.0,94,0.00,,SKC,0.00,VWS V13.00,2013-01-21 11:23:00,
2013-01-21 05:28:00,32.9,31.1,30.12,NNE,24,2.0,4.0,93,0.00,,SKC,0.00,VWS V13.00,2013-01-21 11:28:00,
2013-01-21 05:33:00,32.1,30.3,30.12,NE,42,2.0,2.0,93,0.00,,SKC,0.00,VWS V13.00,2013-01-21 11:33:00,
2013-01-21 05:38:00,31.4,29.6,30.12,NE,42,0.0,2.0,93,0.00,,SKC,0.00,VWS V13.00,2013-01-21 11:38:00,
2013-01-21 05:43:00,30.8,29.0,30.12,NE,42,0.0,2.0,93,0.00,,SKC,0.00,VWS V13.00,2013-01-21 11:43:00,
2013-01-21 05:48:00,30.5,29.0,30.12,NE,42,0.0,2.0,94,0.00,,SKC,0.00,VWS V13.00,2013-01-21 11:48:00,
2013-01-21 05:53:00,30.4,29.1,30.12,NE,42,0.0,2.0,95,0.00,,SKC,0.00,VWS V13.00,2013-01-21 11:53:00,
2013-01-21 05:58:00,30.5,29.5,30.12,NE,42,0.0,2.0,96,0.00,,SKC,0.00,VWS V13.00,2013-01-21 11:58:00,
2013-01-21 06:03:00,30.7,29.7,30.13,NE,42,0.0,0.0,96,0.00,,SKC,0.00,VWS V13.00,2013-01-21 12:03:00,
2013-01-21 06:08:00,31.2,30.5,30.13,NE,42,0.0,0.0,97,0.00,,SKC,0.00,VWS V13.00,2013-01-21 12:08:00,
2013-01-21 06:13:00,31.6,30.9,30.13,NE,42,0.0,0.0,97,0.00,,SKC,0.00,VWS V13.00,2013-01-21 12:13:00,
2013-01-21 06:18:00,31.9,31.1,30.13,NE,42,0.0,0.0,97,0.00,,SKC,0.00,VWS V13.00,2013-01-21 12:18:00,
2013-01-21 06:23:00,32.0,31.2,30.13,NE,42,0.0,0.0,97,0.00,,SKC,0.00,VWS V13.00,2013-01-21 12:23:00,
2013-01-21 06:28:00,32.0,31.2,30.14,NE,42,0.0,0.0,97,0.00,,SKC,0.00,VWS V13.00,2013-01-21 12:28:00,
2013-01-21 06:33:00,31.7,31.0,30.14,NE,42,0.0,0.0,97,0.00,,SKC,0.00,VWS V13.00,2013-01-21 12:33:00,
2013-01-21 06:38:00,31.5,30.8,30.14,NE,42,0.0,0.0,97,0.00,,SKC,0.00,VWS V13.00,2013-01-21 12:38:00,
2013-01-21 06:43:00,31.3,30.5,30.14,NE,42,0.0,0.0,97,0.00,,SKC,0.00,VWS V13.00,2013-01-21 12:43:00,
2013-01-21 06:48:00,31.2,30.2,30.14,NE,42,0.0,0.0,96,0.00,,SKC,0.00,VWS V13.00,2013-01-21 12:48:00,
2013-01-21 06:53:00,31.2,30.5,30.15,NE,42,0.0,0.0,97,0.00,,SKC,0.00,VWS V13.00,2013-01-21 12:53:00,
2013-01-21 06:58:00,31.4,30.6,30.15,NE,42,0.0,0.0,97,0.00,,SKC,0.00,VWS V13.00,2013-01-21 12:58:00,
2013-01-21 07:03:00,32.1,31.6,30.15,NE,42,0.0,0.0,98,0.00,,SKC,0.00,VWS V13.00,2013-01-21 13:03:00,
2013-01-21 07:08:00,32.4,31.9,30.15,NE,42,0.0,0.0,98,0.00,,SKC,0.00,VWS V13.00,2013-01-21 13:08:00,
2013-01-21 07:13:00,32.6,32.1,30.15,NE,42,0.0,0.0,98,0.00,,SKC,0.00,VWS V13.00,2013-01-21 13:13:00,
2013-01-21 07:18:00,32.6,32.1,30.16,NE,42,0.0,0.0,98,0.00,,SKC,0.00,VWS V13.00,2013-01-21 13:18:00,
2013-01-21 07:23:00,32.5,32.0,30.16,NE,42,0.0,1.0,98,0.00,,SKC,0.00,VWS V13.00,2013-01-21 13:23:00,
2013-01-21 07:28:00,32.9,32.1,30.16,NE,42,0.0,1.0,97,0.00,,SKC,0.00,VWS V13.00,2013-01-21 13:28:00,
2013-01-21 07:33:00,33.6,33.1,30.16,NE,42,0.0,0.0,98,0.00,,SKC,0.00,VWS V13.00,2013-01-21 13:33:00,
2013-01-21 07:38:00,34.8,34.3,30.16,NNE,29,2.0,2.0,98,0.00,,SKC,0.00,VWS V13.00,2013-01-21 13:38:00,
2013-01-21 07:43:00,35.2,34.7,30.16,North,355,0.0,2.0,98,0.00,,SKC,0.00,VWS V13.00,2013-01-21 13:43:00,
2013-01-21 07:48:00,34.8,34.0,30.16,NE,44,2.0,3.0,97,0.00,,SKC,0.00,VWS V13.00,2013-01-21 13:48:00,
2013-01-21 07:53:00,34.4,33.4,30.16,NE,44,1.0,4.0,96,0.00,,SKC,0.00,VWS V13.00,2013-01-21 13:53:00,
2013-01-21 07:58:00,34.4,33.4,30.16,NE,44,0.0,4.0,96,0.00,,SKC,0.00,VWS V13.00,2013-01-21 13:58:00,
2013-01-21 08:03:00,34.6,33.6,30.16,NE,44,0.0,0.0,96,0.00,,SKC,0.00,VWS V13.00,2013-01-21 14:03:00,
2013-01-21 08:08:00,35.4,34.6,30.16,North,5,2.0,3.0,97,0.00,,SKC,0.00,VWS V13.00,2013-01-21 14:08:00,
2013-01-21 08:13:00,36.4,35.6,30.16,North,350,1.0,4.0,97,0.00,,SKC,0.00,VWS V13.00,2013-01-21 14:13:00,
2013-01-21 08:18:00,37.2,36.4,30.16,North,5,5.0,6.0,97,0.00,,SKC,0.00,VWS V13.00,2013-01-21 14:18:00,
2013-01-21 08:23:00,37.7,36.7,30.17,North,360,5.0,8.0,96,0.00,,SKC,0.00,VWS V13.00,2013-01-21 14:23:00,
2013-01-21 08:28:00,37.9,36.6,30.17,NNW,348,6.0,8.0,95,0.00,,SKC,0.00,VWS V13.00,2013-01-21 14:28:00,
2013-01-21 08:33:00,38.4,37.1,30.17,North,355,6.0,7.0,95,0.00,,SKC,0.00,VWS V13.00,2013-01-21 14:33:00,
2013-01-21 08:38:00,38.7,37.1,30.17,NW,323,5.0,9.0,94,0.00,,SKC,0.00,VWS V13.00,2013-01-21 14:38:00,
2013-01-21 08:43:00,39.0,37.4,30.18,NW,314,4.0,10.0,94,0.00,,SKC,0.00,VWS V13.00,2013-01-21 14:43:00,
2013-01-21 08:48:00,39.2,37.3,30.18,NNW,344,9.0,12.0,93,0.00,,SKC,0.00,VWS V13.00,2013-01-21 14:48:00,
2013-01-21 08:53:00,39.2,37.3,30.19,NNW,327,5.0,12.0,93,0.00,,SKC,0.00,VWS V13.00,2013-01-21 14:53:00,
2013-01-21 08:58:00,39.3,37.2,30.20,NNW,329,8.0,12.0,92,0.00,,SKC,0.00,VWS V13.00,2013-01-21 14:58:00,
2013-01-21 09:03:00,39.1,37.0,30.20,NNW,329,6.0,8.0,92,0.00,,SKC,0.00,VWS V13.00,2013-01-21 15:03:00,
2013-01-21 09:08:00,39.4,37.3,30.20,North,355,7.0,10.0,92,0.00,,SKC,0.00,VWS V13.00,2013-01-21 15:08:00,
2013-01-21 09:13:00,39.7,37.6,30.20,NNW,338,9.0,10.0,92,0.00,,SKC,0.00,VWS V13.00,2013-01-21 15:13:00,
2013-01-21 09:18:00,40.0,37.9,30.20,NNW,345,7.0,12.0,92,0.00,,SKC,0.00,VWS V13.00,2013-01-21 15:18:00,
2013-01-21 09:23:00,40.4,38.0,30.21,North,355,4.0,12.0,91,0.00,,SKC,0.00,VWS V13.00,2013-01-21 15:23:00,
2013-01-21 09:28:00,40.7,38.3,30.22,NW,325,5.0,12.0,91,0.00,,SKC,0.00,VWS V13.00,2013-01-21 15:28:00,
2013-01-21 09:33:00,41.4,38.4,30.21,North,355,7.0,10.0,89,0.00,,SKC,0.00,VWS V13.00,2013-01-21 15:33:00,
2013-01-21 09:38:00,42.0,37.8,30.21,NNW,346,8.0,11.0,85,0.00,,SKC,0.00,VWS V13.00,2013-01-21 15:38:00,
2013-01-21 09:43:00,42.4,37.3,30.21,North,5,5.0,12.0,82,0.00,,SKC,0.00,VWS V13.00,2013-01-21 15:43:00,
2013-01-21 09:48:00,42.7,36.3,30.21,NNW,342,8.0,14.0,78,0.00,,SKC,0.00,VWS V13.00,2013-01-21 15:48:00,
2013-01-21 09:53:00,43.1,35.7,30.20,NNE,13,9.0,14.0,75,0.00,,SKC,0.00,VWS V13.00,2013-01-21 15:53:00,
2013-01-21 09:58:00,43.3,35.9,30.20,North,355,10.0,14.0,75,0.00,,SKC,0.00,VWS V13.00,2013-01-21 15:58:00,
2013-01-21 10:03:00,43.4,34.6,30.21,NNE,12,10.0,10.0,71,0.00,,SKC,0.00,VWS V13.00,2013-01-21 16:03:00,
2013-01-21 10:08:00,43.8,34.3,30.21,North,350,6.0,11.0,69,0.00,,SKC,0.00,VWS V13.00,2013-01-21 16:08:00,
2013-01-21 10:13:00,44.2,34.0,30.21,North,355,8.0,11.0,67,0.00,,SKC,0.00,VWS V13.00,2013-01-21 16:13:00,
2013-01-21 10:18:00,44.9,33.5,30.21,North,355,6.0,11.0,64,0.00,,SKC,0.00,VWS V13.00,2013-01-21 16:18:00,
2013-01-21 10:22:00,44.8,31.8,30.21,North,349,6.0,13.0,60,0.00,,SKC,0.00,VWS V13.00,2013-01-21 16:22:00,
2013-01-21 10:27:00,44.8,31.8,30.21,NNW,345,7.0,14.0,60,0.00,,SKC,0.00,VWS V13.00,2013-01-21 16:27:00,
2013-01-21 10:32:00,45.1,32.1,30.21,NNE,15,6.0,11.0,60,0.00,,SKC,0.00,VWS V13.00,2013-01-21 16:32:00,
2013-01-21 10:37:00,45.3,31.0,30.21,North,5,9.0,13.0,57,0.00,,SKC,0.00,VWS V13.00,2013-01-21 16:37:00,
2013-01-21 10:42:00,45.8,31.9,30.21,NNW,339,6.0,13.0,58,0.00,,SKC,0.00,VWS V13.00,2013-01-21 16:42:00,
2013-01-21 10:47:00,45.9,31.5,30.20,North,9,10.0,14.0,57,0.00,,SKC,0.00,VWS V13.00,2013-01-21 16:47:00,
2013-01-21 10:52:00,45.9,29.3,30.20,NNW,338,12.0,19.0,52,0.00,,SKC,0.00,VWS V13.00,2013-01-21 16:52:00,
2013-01-21 10:57:00,46.2,30.5,30.20,NW,326,13.0,19.0,54,0.00,,SKC,0.00,VWS V13.00,2013-01-21 16:57:00,
2013-01-21 11:02:00,46.1,29.9,30.20,North,360,14.0,15.0,53,0.00,,SKC,0.00,VWS V13.00,2013-01-21 17:02:00,
2013-01-21 11:07:00,46.2,30.5,30.20,North,355,11.0,15.0,54,0.00,,SKC,0.00,VWS V13.00,2013-01-21 17:07:00,
2013-01-21 11:12:00,46.1,29.0,30.20,North,355,9.0,15.0,51,0.00,,SKC,0.00,VWS V13.00,2013-01-21 17:12:00,
2013-01-21 11:17:00,46.5,30.8,30.20,North,11,10.0,15.0,54,0.00,,SKC,0.00,VWS V13.00,2013-01-21 17:17:00,
2013-01-21 11:22:00,46.7,29.5,30.20,North,355,6.0,15.0,51,0.00,,SKC,0.00,VWS V13.00,2013-01-21 17:22:00,
2013-01-21 11:27:00,46.9,29.2,30.20,NE,35,8.0,15.0,50,0.00,,SKC,0.00,VWS V13.00,2013-01-21 17:27:00,
2013-01-21 11:32:00,46.5,28.9,30.20,NNW,338,10.0,11.0,50,0.00,,SKC,0.00,VWS V13.00,2013-01-21 17:32:00,
2013-01-21 11:37:00,46.3,28.7,30.20,NW,311,12.0,13.0,50,0.00,,SKC,0.00,VWS V13.00,2013-01-21 17:37:00,
2013-01-21 11:42:00,46.5,28.9,30.20,NW,311,10.0,13.0,50,0.00,,SKC,0.00,VWS V13.00,2013-01-21 17:42:00,
2013-01-21 11:47:00,46.0,25.9,30.20,NNW,339,14.0,15.0,45,0.00,,SKC,0.00,VWS V13.00,2013-01-21 17:47:00,
2013-01-21 11:52:00,45.9,26.8,30.19,NNW,331,6.0,15.0,47,0.00,,SKC,0.00,VWS V13.00,2013-01-21 17:52:00,
2013-01-21 11:57:00,46.5,25.2,30.19,NW,305,8.0,15.0,43,0.00,,SKC,0.00,VWS V13.00,2013-01-21 17:57:00,
2013-01-21 12:02:00,46.8,24.9,30.19,NNW,347,6.0,7.0,42,0.00,,SKC,0.00,VWS V13.00,2013-01-21 18:02:00,
2013-01-21 12:07:00,46.7,24.3,30.18,NNW,329,10.0,16.0,41,0.00,,SKC,0.00,VWS V13.00,2013-01-21 18:07:00,
2013-01-21 12:12:00,46.3,23.9,30.18,NW,319,12.0,16.0,41,0.00,,SKC,0.00,VWS V13.00,2013-01-21 18:12:00,
2013-01-21 12:17:00,46.5,24.1,30.18,WNW,302,13.0,16.0,41,0.00,,SKC,0.00,VWS V13.00,2013-01-21 18:17:00,
2013-01-21 12:22:00,46.7,25.4,30.17,North,355,10.0,16.0,43,0.00,,SKC,0.00,VWS V13.00,2013-01-21 18:22:00,
2013-01-21 12:27:00,47.4,24.3,30.17,North,355,9.0,16.0,40,0.00,,SKC,0.00,VWS V13.00,2013-01-21 18:27:00,
2013-01-21 12:32:00,47.7,25.8,30.17,NNW,339,6.0,7.0,42,0.00,,SKC,0.00,VWS V13.00,2013-01-21 18:32:00,
2013-01-21 12:37:00,48.2,23.8,30.17,NNW,335,12.0,16.0,38,0.00,,SKC,0.00,VWS V13.00,2013-01-21 18:37:00,
2013-01-21 12:42:00,47.4,23.7,30.17,NNW,347,8.0,16.0,39,0.00,,SKC,0.00,VWS V13.00,2013-01-21 18:42:00,
2013-01-21 12:47:00,48.0,24.9,30.17,NNW,329,9.0,16.0,40,0.00,,SKC,0.00,VWS V13.00,2013-01-21 18:47:00,
2013-01-21 12:52:00,47.9,23.5,30.17,NNW,342,10.0,16.0,38,0.00,,SKC,0.00,VWS V13.00,2013-01-21 18:52:00,
2013-01-21 12:57:00,47.7,24.0,30.17,NNW,328,7.0,16.0,39,0.00,,SKC,0.00,VWS V13.00,2013-01-21 18:57:00,
2013-01-21 13:02:00,47.7,24.0,30.18,NNW,330,11.0,13.0,39,0.00,,SKC,0.00,VWS V13.00,2013-01-21 19:02:00,
2013-01-21 13:08:00,47.2,24.1,30.18,North,349,14.0,16.0,40,0.00,,SKC,0.00,VWS V13.00,2013-01-21 19:08:00,
2013-01-21 13:13:00,47.0,25.1,30.18,WNW,284,7.0,16.0,42,0.00,,SKC,0.00,VWS V13.00,2013-01-21 19:13:00,
2013-01-21 13:18:00,46.8,24.4,30.19,NW,321,13.0,18.0,41,0.00,,SKC,0.00,VWS V13.00,2013-01-21 19:18:00,
2013-01-21 13:23:00,46.1,24.9,30.19,NNW,329,9.0,18.0,43,0.00,,SKC,0.00,VWS V13.00,2013-01-21 19:23:00,
2013-01-21 13:28:00,45.9,25.2,30.19,NW,320,8.0,21.0,44,0.00,,SKC,0.00,VWS V13.00,2013-01-21 19:28:00,
2013-01-21 13:33:00,46.2,25.5,30.19,NW,322,5.0,6.0,44,0.00,,SKC,0.00,VWS V13.00,2013-01-21 19:33:00,
2013-01-21 13:38:00,46.7,26.5,30.19,WNW,295,8.0,11.0,45,0.00,,SKC,0.00,VWS V13.00,2013-01-21 19:38:00,
2013-01-21 13:43:00,46.3,25.0,30.18,NNW,331,7.0,11.0,43,0.00,,SKC,0.00,VWS V13.00,2013-01-21 19:43:00,
2013-01-21 13:48:00,46.0,23.6,30.19,NNW,329,9.0,15.0,41,0.00,,SKC,0.00,VWS V13.00,2013-01-21 19:48:00,
2013-01-21 13:53:00,46.0,23.6,30.18,WNW,285,7.0,15.0,41,0.00,,SKC,0.00,VWS V13.00,2013-01-21 19:53:00,
2013-01-21 13:58:00,46.1,23.7,30.18,WNW,292,5.0,15.0,41,0.00,,SKC,0.00,VWS V13.00,2013-01-21 19:58:00,
2013-01-21 14:03:00,46.2,23.2,30.18,NNW,339,6.0,9.0,40,0.00,,SKC,0.00,VWS V13.00,2013-01-21 20:03:00,
2013-01-21 14:08:00,46.3,23.9,30.18,NW,304,4.0,13.0,41,0.00,,SKC,0.00,VWS V13.00,2013-01-21 20:08:00,
2013-01-21 14:13:00,46.1,24.3,30.18,WNW,298,10.0,13.0,42,0.00,,SKC,0.00,VWS V13.00,2013-01-21 20:13:00,
2013-01-21 14:18:00,46.0,23.0,30.18,NNW,346,6.0,13.0,40,0.00,,SKC,0.00,VWS V13.00,2013-01-21 20:18:00,
2013-01-21 14:22:00,46.3,23.3,30.18,NNW,339,7.0,15.0,40,0.00,,SKC,0.00,VWS V13.00,2013-01-21 20:22:00,
2013-01-21 14:27:00,46.2,23.2,30.18,NNW,337,8.0,15.0,40,0.00,,SKC,0.00,VWS V13.00,2013-01-21 20:27:00,
2013-01-21 14:32:00,46.1,22.5,30.18,NNW,344,8.0,9.0,39,0.00,,SKC,0.00,VWS V13.00,2013-01-21 20:32:00,
2013-01-21 14:37:00,46.5,22.9,30.18,WNW,286,8.0,10.0,39,0.00,,SKC,0.00,VWS V13.00,2013-01-21 20:37:00,
2013-01-21 14:42:00,46.6,22.4,30.18,NW,313,6.0,11.0,38,0.00,,SKC,0.00,VWS V13.00,2013-01-21 20:42:00,
2013-01-21 14:47:00,46.3,21.5,30.18,NNW,340,8.0,13.0,37,0.00,,SKC,0.00,VWS V13.00,2013-01-21 20:47:00,
2013-01-21 14:52:00,46.1,22.5,30.18,NW,311,9.0,13.0,39,0.00,,SKC,0.00,VWS V13.00,2013-01-21 20:52:00,
2013-01-21 14:57:00,46.3,22.7,30.18,NW,324,11.0,13.0,39,0.00,,SKC,0.00,VWS V13.00,2013-01-21 20:57:00,
2013-01-21 15:02:00,46.2,22.6,30.18,NW,313,9.0,9.0,39,0.00,,SKC,0.00,VWS V13.00,2013-01-21 21:02:00,
2013-01-21 15:07:00,46.2,23.2,30.18,WNW,302,7.0,13.0,40,0.00,,SKC,0.00,VWS V13.00,2013-01-21 21:07:00,
2013-01-21 15:12:00,46.5,24.7,30.18,North,5,5.0,13.0,42,0.00,,SKC,0.00,VWS V13.00,2013-01-21 21:12:00,
2013-01-21 15:17:00,46.4,22.2,30.18,NNW,348,10.0,13.0,38,0.00,,SKC,0.00,VWS V13.00,2013-01-21 21:17:00,
2013-01-21 15:22:00,46.1,22.5,30.19,NNW,338,12.0,13.0,39,0.00,,SKC,0.00,VWS V13.00,2013-01-21 21:22:00,
2013-01-21 15:27:00,46.2,22.6,30.18,NNW,336,9.0,13.0,39,0.00,,SKC,0.00,VWS V13.00,2013-01-21 21:27:00,
2013-01-21 15:32:00,46.1,23.1,30.19,North,360,6.0,8.0,40,0.00,,SKC,0.00,VWS V13.00,2013-01-21 21:32:00,
2013-01-21 15:37:00,46.1,23.1,30.19,NW,326,6.0,11.0,40,0.00,,SKC,0.00,VWS V13.00,2013-01-21 21:37:00,
2013-01-21 15:42:00,46.0,23.0,30.19,NNW,346,8.0,11.0,40,0.00,,SKC,0.00,VWS V13.00,2013-01-21 21:42:00,
2013-01-21 15:47:00,45.8,22.9,30.19,NNW,336,4.0,11.0,40,0.00,,SKC,0.00,VWS V13.00,2013-01-21 21:47:00,
2013-01-21 15:52:00,45.7,22.2,30.19,North,350,6.0,11.0,39,0.00,,SKC,0.00,VWS V13.00,2013-01-21 21:52:00,
2013-01-21 15:57:00,45.6,22.1,30.19,North,5,10.0,11.0,39,0.00,,SKC,0.00,VWS V13.00,2013-01-21 21:57:00,
2013-01-21 16:02:00,45.4,22.5,30.19,NNW,343,7.0,10.0,40,0.00,,SKC,0.00,VWS V13.00,2013-01-21 22:02:00,
2013-01-21 16:07:00,45.3,22.4,30.19,NNW,341,5.0,11.0,40,0.00,,SKC,0.00,VWS V13.00,2013-01-21 22:07:00,
2013-01-21 16:12:00,44.9,22.6,30.19,North,351,5.0,11.0,41,0.00,,SKC,0.00,VWS V13.00,2013-01-21 22:12:00,
2013-01-21 16:17:00,44.7,21.9,30.19,North,5,2.0,11.0,40,0.00,,SKC,0.00,VWS V13.00,2013-01-21 22:17:00,
2013-01-21 16:22:00,44.5,21.7,30.19,NNW,348,6.0,11.0,40,0.00,,SKC,0.00,VWS V13.00,2013-01-21 22:22:00,
2013-01-21 16:27:00,44.4,22.2,30.20,NNW,339,8.0,11.0,41,0.00,,SKC,0.00,VWS V13.00,2013-01-21 22:27:00,
2013-01-21 16:32:00,44.1,21.9,30.20,NW,326,7.0,7.0,41,0.00,,SKC,0.00,VWS V13.00,2013-01-21 22:32:00,
2013-01-21 16:37:00,43.9,21.7,30.20,North,355,7.0,10.0,41,0.00,,SKC,0.00,VWS V13.00,2013-01-21 22:37:00,
2013-01-21 16:42:00,43.5,22.0,30.20,North,349,1.0,10.0,42,0.00,,SKC,0.00,VWS V13.00,2013-01-21 22:42:00,
2013-01-21 16:47:00,43.3,21.8,30.20,NNW,331,1.0,10.0,42,0.00,,SKC,0.00,VWS V13.00,2013-01-21 22:47:00,
2013-01-21 16:52:00,43.0,22.0,30.20,NNW,346,2.0,10.0,43,0.00,,SKC,0.00,VWS V13.00,2013-01-21 22:52:00,
2013-01-21 16:57:00,42.7,21.8,30.20,NNW,342,3.0,10.0,43,0.00,,SKC,0.00,VWS V13.00,2013-01-21 22:57:00,
2013-01-21 17:02:00,42.4,22.0,30.20,North,355,5.0,5.0,44,0.00,,SKC,0.00,VWS V13.00,2013-01-21 23:02:00,
2013-01-21 17:07:00,42.0,21.7,30.20,NW,322,3.0,5.0,44,0.00,,SKC,0.00,VWS V13.00,2013-01-21 23:07:00,
2013-01-21 17:12:00,41.7,21.9,30.21,NW,325,2.0,6.0,45,0.00,,SKC,0.00,VWS V13.00,2013-01-21 23:12:00,
2013-01-21 17:17:00,41.4,21.7,30.21,NNW,327,1.0,6.0,45,0.00,,SKC,0.00,VWS V13.00,2013-01-21 23:17:00,
2013-01-21 17:22:00,41.2,22.0,30.21,NW,323,0.0,6.0,46,0.00,,SKC,0.00,VWS V13.00,2013-01-21 23:22:00,
2013-01-21 17:27:00,41.0,22.3,30.21,NW,323,1.0,6.0,47,0.00,,SKC,0.00,VWS V13.00,2013-01-21 23:27:00,
2013-01-21 17:32:00,40.6,22.5,30.21,NW,311,2.0,3.0,48,0.00,,SKC,0.00,VWS V13.00,2013-01-21 23:32:00,
2013-01-21 17:37:00,40.3,22.2,30.22,NW,321,0.0,6.0,48,0.00,,SKC,0.00,VWS V13.00,2013-01-21 23:37:00,
2013-01-21 17:42:00,40.1,22.0,30.22,NW,309,6.0,6.0,48,0.00,,SKC,0.00,VWS V13.00,2013-01-21 23:42:00,
2013-01-21 17:47:00,39.8,21.7,30.22,NW,315,3.0,6.0,48,0.00,,SKC,0.00,VWS V13.00,2013-01-21 23:47:00,
2013-01-21 17:52:00,40.0,20.9,30.22,NNW,340,5.0,6.0,46,0.00,,SKC,0.00,VWS V13.00,2013-01-21 23:52:00,
2013-01-21 17:57:00,40.1,21.0,30.22,NW,323,1.0,6.0,46,0.00,,SKC,0.00,VWS V13.00,2013-01-21 23:57:00,
2013-01-21 18:02:00,39.9,21.8,30.22,WNW,297,2.0,6.0,48,0.00,,SKC,0.00,VWS V13.00,2013-01-22 00:02:00,
2013-01-21 18:07:00,39.7,21.6,30.21,WNW,296,1.0,5.0,48,0.00,,SKC,0.00,VWS V13.00,2013-01-22 00:07:00,
2013-01-21 18:12:00,39.6,22.0,30.22,WNW,301,1.0,5.0,49,0.00,,SKC,0.00,VWS V13.00,2013-01-22 00:12:00,
2013-01-21 18:17:00,39.4,21.8,30.22,WNW,296,3.0,5.0,49,0.00,,SKC,0.00,VWS V13.00,2013-01-22 00:17:00,
2013-01-21 18:22:00,39.3,22.2,30.22,WNW,302,3.0,5.0,50,0.00,,SKC,0.00,VWS V13.00,2013-01-22 00:22:00,
2013-01-21 18:27:00,39.2,22.6,30.23,WNW,301,2.0,5.0,51,0.00,,SKC,0.00,VWS V13.00,2013-01-22 00:27:00,
2013-01-21 18:32:00,39.0,22.9,30.23,NW,314,1.0,5.0,52,0.00,,SKC,0.00,VWS V13.00,2013-01-22 00:32:00,
2013-01-21 18:37:00,38.8,21.8,30.23,NNW,331,0.0,6.0,50,0.00,,SKC,0.00,VWS V13.00,2013-01-22 00:37:00,
2013-01-21 18:42:00,38.6,22.0,30.23,NW,309,2.0,6.0,51,0.00,,SKC,0.00,VWS V13.00,2013-01-22 00:42:00,
2013-01-21 18:47:00,38.6,22.0,30.23,NW,312,4.0,6.0,51,0.00,,SKC,0.00,VWS V13.00,2013-01-22 00:47:00,
2013-01-21 18:52:00,38.7,21.7,30.23,NW,313,2.0,6.0,50,0.00,,SKC,0.00,VWS V13.00,2013-01-22 00:52:00,
2013-01-21 18:57:00,38.7,22.1,30.23,WNW,300,5.0,6.0,51,0.00,,SKC,0.00,VWS V13.00,2013-01-22 00:57:00,
2013-01-21 19:02:00,38.5,22.4,30.23,NW,309,2.0,6.0,52,0.00,,SKC,0.00,VWS V13.00,2013-01-22 01:02:00,
2013-01-21 19:07:00,38.3,21.8,30.23,NW,323,3.0,6.0,51,0.00,,SKC,0.00,VWS V13.00,2013-01-22 01:07:00,
2013-01-21 19:12:00,38.3,21.8,30.23,NW,306,2.0,7.0,51,0.00,,SKC,0.00,VWS V13.00,2013-01-22 01:12:00,
2013-01-21 19:17:00,38.3,21.8,30.23,NW,311,1.0,7.0,51,0.00,,SKC,0.00,VWS V13.00,2013-01-22 01:17:00,
2013-01-21 19:22:00,38.3,22.2,30.23,NW,325,1.0,7.0,52,0.00,,SKC,0.00,VWS V13.00,2013-01-22 01:22:00,
2013-01-21 19:27:00,38.2,22.1,30.23,NW,324,4.0,7.0,52,0.00,,SKC,0.00,VWS V13.00,2013-01-22 01:27:00,
2013-01-21 19:32:00,38.2,22.1,30.23,NW,311,4.0,7.0,52,0.00,,SKC,0.00,VWS V13.00,2013-01-22 01:32:00,
2013-01-21 19:37:00,38.1,22.0,30.23,NNW,331,1.0,5.0,52,0.00,,SKC,0.00,VWS V13.00,2013-01-22 01:37:00,
2013-01-21 19:42:00,38.1,22.0,30.23,NNW,329,5.0,8.0,52,0.00,,SKC,0.00,VWS V13.00,2013-01-22 01:42:00,
2013-01-21 19:47:00,38.2,21.7,30.23,NW,323,6.0,8.0,51,0.00,,SKC,0.00,VWS V13.00,2013-01-22 01:47:00,
2013-01-21 19:52:00,38.1,22.0,30.23,NNW,329,8.0,9.0,52,0.00,,SKC,0.00,VWS V13.00,2013-01-22 01:52:00,
2013-01-21 19:57:00,38.1,21.6,30.23,NW,323,6.0,9.0,51,0.00,,SKC,0.00,VWS V13.00,2013-01-22 01:57:00,
2013-01-21 20:02:00,38.0,22.0,30.23,NW,323,4.0,9.0,52,0.00,,SKC,0.00,VWS V13.00,2013-01-22 02:02:00,
2013-01-21 20:07:00,37.9,21.4,30.23,NW,322,2.0,7.0,51,0.00,,SKC,0.00,VWS V13.00,2013-01-22 02:07:00,
2013-01-21 20:12:00,37.7,21.7,30.23,NNW,332,4.0,7.0,52,0.00,,SKC,0.00,VWS V13.00,2013-01-22 02:12:00,
2013-01-21 20:17:00,37.5,21.5,30.23,NNW,338,1.0,7.0,52,0.00,,SKC,0.00,VWS V13.00,2013-01-22 02:17:00,
2013-01-21 20:22:00,37.3,21.3,30.23,NW,319,5.0,7.0,52,0.00,,SKC,0.00,VWS V13.00,2013-01-22 02:22:00,
2013-01-21 20:27:00,37.3,21.3,30.23,North,351,1.0,8.0,52,0.00,,SKC,0.00,VWS V13.00,2013-01-22 02:27:00,
2013-01-21 20:32:00,37.2,21.2,30.23,NW,317,2.0,8.0,52,0.00,,SKC,0.00,VWS V13.00,2013-01-22 02:32:00,
2013-01-21 20:37:00,37.1,21.1,30.23,NNW,327,6.0,8.0,52,0.00,,SKC,0.00,VWS V13.00,2013-01-22 02:37:00,
2013-01-21 20:42:00,37.0,21.0,30.23,NNW,348,5.0,8.0,52,0.00,,SKC,0.00,VWS V13.00,2013-01-22 02:42:00,
2013-01-21 20:47:00,36.9,21.4,30.24,NNW,336,3.0,8.0,53,0.00,,SKC,0.00,VWS V13.00,2013-01-22 02:47:00,
2013-01-21 20:52:00,36.7,20.8,30.24,NNW,340,5.0,8.0,52,0.00,,SKC,0.00,VWS V13.00,2013-01-22 02:52:00,
2013-01-21 20:57:00,36.7,20.8,30.24,NNW,331,4.0,8.0,52,0.00,,SKC,0.00,VWS V13.00,2013-01-22 02:57:00,
2013-01-21 21:02:00,36.7,20.8,30.24,NNW,330,6.0,8.0,52,0.00,,SKC,0.00,VWS V13.00,2013-01-22 03:02:00,
2013-01-21 21:07:00,36.6,20.6,30.23,NNW,333,6.0,7.0,52,0.00,,SKC,0.00,VWS V13.00,2013-01-22 03:07:00,
2013-01-21 21:12:00,36.6,20.6,30.24,NNW,338,4.0,9.0,52,0.00,,SKC,0.00,VWS V13.00,2013-01-22 03:12:00,
2013-01-21 21:17:00,36.4,20.5,30.24,North,349,1.0,9.0,52,0.00,,SKC,0.00,VWS V13.00,2013-01-22 03:17:00,
2013-01-21 21:22:00,36.1,20.6,30.24,NNW,348,2.0,9.0,53,0.00,,SKC,0.00,VWS V13.00,2013-01-22 03:22:00,
2013-01-21 21:26:00,35.8,20.8,30.24,North,355,1.0,9.0,54,0.00,,SKC,0.00,VWS V13.00,2013-01-22 03:26:00,
2013-01-21 21:31:00,35.5,21.0,30.24,North,350,0.0,9.0,55,0.00,,SKC,0.00,VWS V13.00,2013-01-22 03:31:00,
2013-01-21 21:36:00,35.3,20.8,30.24,North,355,2.0,5.0,55,0.00,,SKC,0.00,VWS V13.00,2013-01-22 03:36:00,
2013-01-21 21:41:00,35.0,20.5,30.24,North,355,2.0,7.0,55,0.00,,SKC,0.00,VWS V13.00,2013-01-22 03:41:00,
2013-01-21 21:46:00,34.8,20.3,30.24,NNW,329,5.0,7.0,55,0.00,,SKC,0.00,VWS V13.00,2013-01-22 03:46:00,
2013-01-21 21:51:00,34.7,20.6,30.23,NNW,345,2.0,7.0,56,0.00,,SKC,0.00,VWS V13.00,2013-01-22 03:51:00,
2013-01-21 21:56:00,34.5,20.4,30.24,NNW,348,2.0,7.0,56,0.00,,SKC,0.00,VWS V13.00,2013-01-22 03:56:00,
2013-01-21 22:01:00,34.4,19.9,30.24,NNW,344,4.0,10.0,55,0.00,,SKC,0.00,VWS V13.00,2013-01-22 04:01:00,
2013-01-21 22:06:00,34.3,20.2,30.23,North,360,5.0,9.0,56,0.00,,SKC,0.00,VWS V13.00,2013-01-22 04:06:00,
2013-01-21 22:11:00,34.3,19.8,30.23,NNW,332,5.0,10.0,55,0.00,,SKC,0.00,VWS V13.00,2013-01-22 04:11:00,
2013-01-21 22:16:00,34.2,19.7,30.24,North,11,5.0,10.0,55,0.00,,SKC,0.00,VWS V13.00,2013-01-22 04:16:00,
2013-01-21 22:21:00,34.1,20.1,30.23,North,10,4.0,10.0,56,0.00,,SKC,0.00,VWS V13.00,2013-01-22 04:21:00,
2013-01-21 22:26:00,34.0,20.0,30.23,North,5,4.0,10.0,56,0.00,,SKC,0.00,VWS V13.00,2013-01-22 04:26:00,
2013-01-21 22:31:00,33.9,19.9,30.23,NNW,344,6.0,11.0,56,0.00,,SKC,0.00,VWS V13.00,2013-01-22 04:31:00,
2013-01-21 22:36:00,33.8,19.8,30.24,NNE,13,4.0,9.0,56,0.00,,SKC,0.00,VWS V13.00,2013-01-22 04:36:00,
2013-01-21 22:41:00,33.7,19.3,30.23,North,355,4.0,11.0,55,0.00,,SKC,0.00,VWS V13.00,2013-01-22 04:41:00,
2013-01-21 22:46:00,33.6,19.2,30.23,NNW,338,5.0,11.0,55,0.00,,SKC,0.00,VWS V13.00,2013-01-22 04:46:00,
2013-01-21 22:51:00,33.5,19.1,30.23,NW,315,6.0,11.0,55,0.00,,SKC,0.00,VWS V13.00,2013-01-22 04:51:00,
2013-01-21 22:56:00,33.4,19.4,30.23,NNW,336,4.0,11.0,56,0.00,,SKC,0.00,VWS V13.00,2013-01-22 04:56:00,
2013-01-21 23:00:00,33.3,19.3,30.24,NW,319,2.0,11.0,56,0.00,,SKC,0.00,VWS V13.00,2013-01-22 05:00:00,
2013-01-21 23:01:00,33.3,19.7,30.24,NNW,346,4.0,11.0,57,0.00,,SKC,0.00,VWS V13.00,2013-01-22 05:01:00,
2013-01-21 23:02:00,33.2,19.2,30.24,NNW,348,5.0,7.0,56,0.00,,SKC,0.00,VWS V13.00,2013-01-22 05:02:00,
2013-01-21 23:08:00,33.0,19.0,30.23,North,351,4.0,7.0,56,0.00,,SKC,0.00,VWS V13.00,2013-01-22 05:08:00,
2013-01-21 23:13:00,32.9,19.4,30.24,North,5,5.0,7.0,57,0.00,,SKC,0.00,VWS V13.00,2013-01-22 05:13:00,
2013-01-21 23:18:00,32.7,19.2,30.23,North,5,3.0,7.0,57,0.00,,SKC,0.00,VWS V13.00,2013-01-22 05:18:00,
2013-01-21 23:23:00,32.5,19.0,30.23,NNW,344,4.0,7.0,57,0.00,,SKC,0.00,VWS V13.00,2013-01-22 05:23:00,
2013-01-21 23:28:00,32.4,18.9,30.23,North,5,5.0,7.0,57,0.00,,SKC,0.00,VWS V13.00,2013-01-22 05:28:00,
2013-01-21 23:33:00,32.4,18.9,30.23,NNW,348,2.0,5.0,57,0.00,,SKC,0.00,VWS V13.00,2013-01-22 05:33:00,
2013-01-21 23:38:00,32.4,18.9,30.23,NNW,336,2.0,6.0,57,0.00,,SKC,0.00,VWS V13.00,2013-01-22 05:38:00,
2013-01-21 23:43:00,32.3,18.8,30.24,NW,323,2.0,6.0,57,0.00,,SKC,0.00,VWS V13.00,2013-01-22 05:43:00,
2013-01-21 23:48:00,32.1,19.0,30.24,NNW,340,3.0,6.0,58,0.00,,SKC,0.00,VWS V13.00,2013-01-22 05:48:00,
2013-01-21 23:53:00,32.0,18.9,30.23,NNW,335,2.0,6.0,58,0.00,,SKC,0.00,VWS V13.00,2013-01-22 05:53:00,
2013-01-21 23:58:00,31.9,18.8,30.23,NNW,338,0.0,6.0,58,0.00,,SKC,0.00,VWS V13.00,2013-01-22 05:58:00,